createdAt,value
2023-03-16T00:02:46.530Z,2.55
2023-03-16T00:07:43.428Z,3.67
2023-03-16T00:12:40.267Z,2.67
2023-03-16T00:17:37.536Z,2.85
2023-03-16T00:22:34.136Z,4.20
2023-03-16T00:27:30.699Z,3.42
2023-03-16T00:32:33.026Z,2.90
2023-03-16T00:37:30.209Z,3.65
2023-03-16T00:42:29.295Z,3.35
2023-03-16T00:47:28.392Z,4.10
2023-03-16T00:52:27.239Z,3.88
2023-03-16T00:57:25.088Z,3.78
2023-03-16T01:02:24.369Z,3.50
2023-03-16T01:07:21.839Z,3.38
2023-03-16T01:12:19.333Z,4.10
2023-03-16T01:17:17.334Z,3.63
2023-03-16T01:22:14.792Z,3.50
2023-03-16T01:27:12.673Z,3.60
2023-03-16T01:32:09.201Z,3.60
2023-03-16T01:37:05.918Z,3.83
2023-03-16T01:42:02.422Z,3.70
2023-03-16T01:46:58.916Z,3.50
2023-03-16T01:51:58.140Z,4.05
2023-03-16T01:57:09.856Z,4.07
2023-03-16T02:02:07.452Z,3.20
2023-03-16T02:07:05.713Z,2.80
2023-03-16T02:12:02.190Z,2.85
2023-03-16T02:16:58.648Z,3.20
2023-03-16T02:22:04.669Z,3.20
2023-03-16T02:27:31.399Z,3.03
2023-03-16T02:32:29.977Z,2.70
2023-03-16T02:37:27.379Z,2.60
2023-03-16T02:42:26.338Z,3.08
2023-03-16T02:47:34.994Z,2.88
2023-03-16T02:52:31.487Z,2.60
2023-03-16T02:57:27.907Z,2.50
2023-03-16T03:02:24.508Z,2.60
2023-03-16T03:07:21.494Z,2.38
2023-03-16T03:12:17.972Z,2.70
2023-03-16T03:17:14.414Z,2.88
2023-03-16T03:22:10.968Z,2.73
2023-03-16T03:27:07.455Z,2.33
2023-03-16T03:32:04.768Z,2.35
2023-03-16T03:37:01.256Z,2.50
2023-03-16T03:41:57.739Z,2.88
2023-03-16T03:46:54.380Z,5.47
2023-03-16T03:51:51.292Z,2.22
2023-03-16T03:56:48.781Z,2.45
2023-03-16T04:01:45.238Z,2.50
2023-03-16T04:06:41.728Z,2.28
2023-03-16T04:11:38.745Z,2.70
2023-03-16T04:16:35.436Z,2.20
2023-03-16T04:21:32.185Z,2.38
2023-03-16T04:26:28.718Z,2.60
2023-03-16T04:31:25.273Z,3.00
2023-03-16T04:36:25.865Z,2.33
2023-03-16T04:41:22.373Z,2.10
2023-03-16T04:46:18.898Z,2.50
2023-03-16T04:57:35.369Z,2.45
2023-03-16T05:02:32.102Z,3.05
2023-03-16T05:07:28.846Z,2.60
2023-03-16T05:12:25.292Z,2.38
2023-03-16T05:17:22.148Z,2.38
2023-03-16T05:22:18.680Z,2.47
2023-03-16T05:27:15.201Z,2.65
2023-03-16T05:32:12.737Z,2.10
2023-03-16T05:37:09.866Z,2.35
2023-03-16T17:12:21.605Z,0.95
2023-03-16T17:17:18.463Z,0.70
2023-03-16T17:27:26.114Z,0.95
2023-03-16T17:32:22.954Z,0.85
2023-03-16T17:42:19.238Z,1.20
2023-03-16T17:47:23.873Z,1.15
2023-03-16T17:52:25.947Z,1.00
2023-03-16T17:57:29.087Z,1.42
2023-03-16T18:02:44.642Z,0.95
2023-03-16T18:07:41.366Z,1.00
2023-03-16T18:12:38.115Z,1.48
2023-03-16T18:17:35.977Z,0.93
2023-03-16T18:23:05.312Z,1.40
2023-03-16T18:28:11.223Z,1.30
2023-03-16T18:33:38.347Z,1.58
2023-03-16T18:38:37.291Z,1.40
2023-03-16T18:43:35.807Z,1.35
2023-03-16T18:48:36.580Z,1.40
2023-03-16T18:53:33.810Z,1.45
2023-03-16T18:58:30.339Z,1.20
2023-03-16T19:03:29.430Z,1.70
2023-03-16T19:08:27.762Z,1.73
2023-03-16T19:13:25.970Z,1.27
2023-03-16T19:18:24.896Z,1.10
2023-03-16T19:23:28.608Z,1.70
2023-03-16T19:28:58.083Z,1.83
2023-03-16T19:34:03.417Z,1.75
2023-03-16T19:39:24.852Z,1.40
2023-03-16T19:44:31.905Z,1.90
2023-03-16T19:49:36.785Z,1.50
2023-03-16T19:54:59.761Z,1.90
2023-03-16T20:00:06.737Z,2.15
2023-03-16T20:05:43.365Z,1.45
2023-03-16T20:16:37.297Z,1.45
2023-03-16T20:21:34.208Z,1.55
2023-03-16T20:26:32.827Z,1.80
2023-03-16T20:31:34.526Z,1.52
2023-03-16T20:36:32.162Z,1.60
2023-03-16T20:41:32.161Z,1.90
2023-03-16T20:46:30.834Z,1.92
2023-03-16T20:51:28.658Z,1.73
2023-03-16T20:56:28.105Z,1.52
2023-03-16T21:01:24.778Z,1.60
2023-03-16T21:06:27.524Z,1.80
2023-03-16T21:11:26.374Z,1.67
2023-03-16T21:16:23.041Z,1.65
2023-03-16T21:21:20.422Z,1.70
2023-03-16T21:26:24.935Z,1.80
2023-03-16T21:31:21.454Z,1.70
2023-03-16T21:36:20.087Z,1.55
2023-03-16T21:41:17.205Z,1.80
2023-03-16T21:46:20.664Z,1.63
2023-03-16T21:51:20.499Z,1.65
2023-03-16T21:56:20.556Z,1.65
2023-03-16T22:01:24.624Z,1.58
2023-03-16T22:06:21.932Z,1.50
2023-03-16T22:11:20.721Z,1.60
2023-03-16T22:16:19.265Z,1.77
2023-03-16T22:21:38.057Z,1.80
2023-03-16T22:26:34.580Z,2.70
2023-03-16T22:31:35.513Z,1.98
2023-03-16T22:36:33.246Z,2.47
2023-03-16T22:41:30.087Z,1.70
2023-03-16T22:46:28.930Z,1.80
2023-03-16T22:51:36.238Z,2.15
2023-03-16T22:56:33.848Z,1.60
2023-03-16T23:01:37.909Z,1.45
2023-03-16T23:06:35.303Z,1.88
2023-03-16T23:11:33.884Z,1.63
2023-03-16T23:16:34.461Z,1.52
2023-03-16T23:21:31.713Z,1.80
2023-03-16T23:26:28.737Z,1.65
2023-03-16T23:36:28.220Z,1.83
2023-03-16T23:41:25.224Z,1.83
2023-03-16T23:51:27.318Z,1.92
2023-03-16T23:56:24.427Z,2.00
